Airfield :
LOGIN :

Register | Disclaimer

   EN    FR    IT 

 










Legend :    VFR   Marginal VFR   IFR   Intensive IFR   Very Intensive IFR
Visi :
Ceiling :
>= 8 km
>= 3000ft
5 to 8 km
1000 to 3000 ft
1500m to 5 km
500 to 1000 ft
800 to 1500m
200 to 500 ft
< 800m
< 200 ft
Symbols :   Thunderstorms  Fog  Heavy snow  Heavy precipitations  Wind > 20 kt
SIGMETs :     Misc.  Thunderstorms  Icing  Turbulence  Mountain Waves  Volcanic Ashes






- Airport Elevation : 1090 ft
- IATA code : CFE


LFLC - Clermont-Ferrand Auvergne

CURRENT METAR :
  • 211830Z AUTO 23005KT 190V300 9999 FEW035 12/07 Q1017 NOSIG

EXPIRED METARs :
  • 211800Z AUTO 22005KT 9999 FEW038 11/07 Q1017 NOSIG
  • 211730Z AUTO 19004KT 9999 FEW056 SCT066 12/06 Q1017 NOSIG
  • 211700Z AUTO 21005KT CAVOK 14/06 Q1017 NOSIG
  • 211630Z AUTO 24010KT 9999 SCT056 15/06 Q1017 NOSIG
  • 211600Z AUTO 24006KT 9999 FEW060 SCT070 15/05 Q1017 NOSIG

TAF TAF LFLC
Valid from the 21 at 18:00 until the 22 at 18:00 UTC


211700Z 2118/2218 25008KT CAVOK
PROB40
TEMPO 2122/2204 4000 SHRA BKN030TCU
TEMPO 2202/2210 BKN012
BECMG 2206/2208 02008KT
ATIS : +33 4 73 62 74 38



MET'MAP, your aeronautical weather chart ! - Copyright ORBIFLY December 2007 - Disclaimer

ORBIFLY MET'MAP TEAM :

Programming & Development : Alexandra Zaïnal
Concept & original design : Baudouin d'Aumeries
Assistance for programming : Marc-Olivier Méhu
Technical & hardware support : Manuel Goepfert

Contact : metmap@orbifly.com




SOURCES & CREDITS :

   NOAA